Matagorda, Texas
Current Conditions -  °F | °C
As of 7:53 PM on Monday 22 Dec 2014 (Local Time) from KPSX Reporting Station
Clear Clear  
Wind Chill: 16°   Ceiling: Unl
Heat Index: 16°   Visibility: 7mi
Dew Point: 16°   Wind: 5mph
Humidity: 97%   Direction: 170°S
Pressure: 29.65"   Gusts: NA
Location:  28.69°N, 95.97°W
Report Text: KPSX 230153Z AUTO 17004KT 7SM CLR 16/16 A2965 RMK AO2 SLP038 T01610156
Loading
Personal Weather Stations






























Interactive Weather Map New forecast layout! Learn more

10-Day Weather Forecast

Advertisements
Track Severe Weather on mobile